sensor_id;sensor_type;location;lat;lon;timestamp;P1;durP1;ratioP1;P2;durP2;ratioP2
57746;SDS011;43580;44.014;20.466;2022-12-07T00:03:42;278.95;;;157.48;;
57746;SDS011;43580;44.014;20.466;2022-12-07T00:06:09;296.30;;;172.57;;
57746;SDS011;43580;44.014;20.466;2022-12-07T00:08:35;292.08;;;167.38;;
57746;SDS011;43580;44.014;20.466;2022-12-07T00:11:06;273.25;;;155.27;;
57746;SDS011;43580;44.014;20.466;2022-12-07T00:13:33;311.25;;;178.07;;
57746;SDS011;43580;44.014;20.466;2022-12-07T00:16:00;296.05;;;172.13;;
57746;SDS011;43580;44.014;20.466;2022-12-07T00:18:26;352.63;;;206.18;;
57746;SDS011;43580;44.014;20.466;2022-12-07T00:20:52;290.00;;;167.35;;
57746;SDS011;43580;44.014;20.466;2022-12-07T00:23:18;269.02;;;160.73;;
57746;SDS011;43580;44.014;20.466;2022-12-07T00:25:44;258.40;;;150.00;;
57746;SDS011;43580;44.014;20.466;2022-12-07T00:28:11;263.02;;;157.48;;
57746;SDS011;43580;44.014;20.466;2022-12-07T00:30:37;280.08;;;163.48;;
57746;SDS011;43580;44.014;20.466;2022-12-07T00:33:06;273.85;;;162.90;;
57746;SDS011;43580;44.014;20.466;2022-12-07T00:35:34;284.95;;;167.50;;
57746;SDS011;43580;44.014;20.466;2022-12-07T00:38:00;305.80;;;176.20;;
57746;SDS011;43580;44.014;20.466;2022-12-07T00:40:26;271.55;;;156.23;;
57746;SDS011;43580;44.014;20.466;2022-12-07T00:42:52;260.65;;;150.45;;
57746;SDS011;43580;44.014;20.466;2022-12-07T00:45:18;268.45;;;157.88;;
57746;SDS011;43580;44.014;20.466;2022-12-07T00:47:49;294.00;;;178.38;;
57746;SDS011;43580;44.014;20.466;2022-12-07T00:50:15;264.95;;;154.32;;
57746;SDS011;43580;44.014;20.466;2022-12-07T00:52:41;249.18;;;144.52;;
57746;SDS011;43580;44.014;20.466;2022-12-07T00:55:08;252.90;;;146.88;;
57746;SDS011;43580;44.014;20.466;2022-12-07T00:57:34;240.88;;;143.30;;
57746;SDS011;43580;44.014;20.466;2022-12-07T01:00:00;252.05;;;152.93;;
57746;SDS011;43580;44.014;20.466;2022-12-07T01:02:26;243.10;;;148.45;;
57746;SDS011;43580;44.014;20.466;2022-12-07T01:04:52;237.82;;;144.73;;
57746;SDS011;43580;44.014;20.466;2022-12-07T01:07:18;256.92;;;152.70;;
57746;SDS011;43580;44.014;20.466;2022-12-07T01:09:44;285.80;;;169.55;;
57746;SDS011;43580;44.014;20.466;2022-12-07T01:12:10;237.90;;;144.98;;
57746;SDS011;43580;44.014;20.466;2022-12-07T01:14:36;239.70;;;144.30;;
57746;SDS011;43580;44.014;20.466;2022-12-07T01:17:02;236.85;;;133.60;;
57746;SDS011;43580;44.014;20.466;2022-12-07T01:19:28;236.43;;;143.30;;
57746;SDS011;43580;44.014;20.466;2022-12-07T01:21:54;236.05;;;138.05;;
57746;SDS011;43580;44.014;20.466;2022-12-07T01:24:21;231.70;;;142.70;;
57746;SDS011;43580;44.014;20.466;2022-12-07T01:26:50;239.35;;;145.77;;
57746;SDS011;43580;44.014;20.466;2022-12-07T01:29:16;243.57;;;146.30;;
57746;SDS011;43580;44.014;20.466;2022-12-07T01:31:44;280.52;;;165.32;;
57746;SDS011;43580;44.014;20.466;2022-12-07T01:34:10;260.17;;;155.05;;
57746;SDS011;43580;44.014;20.466;2022-12-07T01:36:36;228.68;;;141.15;;
57746;SDS011;43580;44.014;20.466;2022-12-07T01:39:03;249.35;;;151.18;;
57746;SDS011;43580;44.014;20.466;2022-12-07T01:41:34;265.30;;;155.52;;
57746;SDS011;43580;44.014;20.466;2022-12-07T01:44:21;254.88;;;147.88;;
57746;SDS011;43580;44.014;20.466;2022-12-07T01:49:26;213.15;;;128.23;;
57746;SDS011;43580;44.014;20.466;2022-12-07T01:51:58;225.50;;;131.65;;
57746;SDS011;43580;44.014;20.466;2022-12-07T01:54:26;216.40;;;127.70;;
57746;SDS011;43580;44.014;20.466;2022-12-07T01:56:53;204.18;;;122.45;;
57746;SDS011;43580;44.014;20.466;2022-12-07T01:59:20;174.35;;;100.78;;
57746;SDS011;43580;44.014;20.466;2022-12-07T02:01:47;161.57;;;90.18;;
57746;SDS011;43580;44.014;20.466;2022-12-07T02:04:16;156.07;;;87.80;;
57746;SDS011;43580;44.014;20.466;2022-12-07T02:06:42;168.95;;;95.72;;
57746;SDS011;43580;44.014;20.466;2022-12-07T02:09:08;140.18;;;81.50;;
57746;SDS011;43580;44.014;20.466;2022-12-07T02:11:34;137.85;;;77.10;;
57746;SDS011;43580;44.014;20.466;2022-12-07T02:14:01;145.00;;;87.03;;
57746;SDS011;43580;44.014;20.466;2022-12-07T02:29:27;178.85;;;106.05;;
57746;SDS011;43580;44.014;20.466;2022-12-07T02:32:19;236.30;;;125.85;;
57746;SDS011;43580;44.014;20.466;2022-12-07T02:40:09;222.77;;;127.10;;
57746;SDS011;43580;44.014;20.466;2022-12-07T02:42:37;206.68;;;120.75;;
57746;SDS011;43580;44.014;20.466;2022-12-07T02:45:07;195.38;;;112.93;;
57746;SDS011;43580;44.014;20.466;2022-12-07T02:47:34;178.73;;;102.93;;
57746;SDS011;43580;44.014;20.466;2022-12-07T02:50:03;171.50;;;102.35;;
57746;SDS011;43580;44.014;20.466;2022-12-07T02:52:30;163.60;;;98.10;;
57746;SDS011;43580;44.014;20.466;2022-12-07T02:54:56;165.43;;;98.57;;
57746;SDS011;43580;44.014;20.466;2022-12-07T03:00:04;143.73;;;85.82;;
57746;SDS011;43580;44.014;20.466;2022-12-07T03:10:48;222.73;;;119.28;;
57746;SDS011;43580;44.014;20.466;2022-12-07T03:13:28;176.52;;;103.15;;
57746;SDS011;43580;44.014;20.466;2022-12-07T03:18:22;179.48;;;103.55;;
57746;SDS011;43580;44.014;20.466;2022-12-07T03:20:50;169.95;;;101.43;;
57746;SDS011;43580;44.014;20.466;2022-12-07T03:23:17;169.20;;;100.47;;
57746;SDS011;43580;44.014;20.466;2022-12-07T03:25:46;173.88;;;106.25;;
57746;SDS011;43580;44.014;20.466;2022-12-07T03:28:13;174.23;;;105.95;;
57746;SDS011;43580;44.014;20.466;2022-12-07T03:30:52;170.35;;;102.20;;
57746;SDS011;43580;44.014;20.466;2022-12-07T03:33:22;203.57;;;115.22;;
57746;SDS011;43580;44.014;20.466;2022-12-07T03:35:52;168.77;;;103.03;;
57746;SDS011;43580;44.014;20.466;2022-12-07T03:38:22;163.05;;;100.70;;
57746;SDS011;43580;44.014;20.466;2022-12-07T03:43:20;151.23;;;93.63;;
57746;SDS011;43580;44.014;20.466;2022-12-07T03:46:22;192.95;;;109.82;;
57746;SDS011;43580;44.014;20.466;2022-12-07T03:51:22;155.25;;;88.65;;
57746;SDS011;43580;44.014;20.466;2022-12-07T03:56:20;178.57;;;98.60;;
57746;SDS011;43580;44.014;20.466;2022-12-07T03:58:46;218.43;;;110.45;;
57746;SDS011;43580;44.014;20.466;2022-12-07T04:01:13;239.75;;;116.93;;
57746;SDS011;43580;44.014;20.466;2022-12-07T04:03:39;187.45;;;99.03;;
57746;SDS011;43580;44.014;20.466;2022-12-07T04:06:05;195.15;;;104.68;;
57746;SDS011;43580;44.014;20.466;2022-12-07T04:08:31;217.65;;;107.18;;
57746;SDS011;43580;44.014;20.466;2022-12-07T04:10:57;177.98;;;96.68;;
57746;SDS011;43580;44.014;20.466;2022-12-07T04:13:23;162.52;;;88.95;;
57746;SDS011;43580;44.014;20.466;2022-12-07T04:15:51;135.57;;;78.90;;
57746;SDS011;43580;44.014;20.466;2022-12-07T04:18:17;128.98;;;74.43;;
57746;SDS011;43580;44.014;20.466;2022-12-07T04:20:46;120.20;;;70.35;;
57746;SDS011;43580;44.014;20.466;2022-12-07T04:23:12;117.40;;;66.97;;
57746;SDS011;43580;44.014;20.466;2022-12-07T04:25:38;112.35;;;63.67;;
57746;SDS011;43580;44.014;20.466;2022-12-07T04:28:04;115.07;;;66.65;;
57746;SDS011;43580;44.014;20.466;2022-12-07T04:30:30;122.25;;;73.10;;
57746;SDS011;43580;44.014;20.466;2022-12-07T04:32:56;122.82;;;74.45;;
57746;SDS011;43580;44.014;20.466;2022-12-07T04:35:22;126.32;;;72.10;;
57746;SDS011;43580;44.014;20.466;2022-12-07T04:37:53;131.20;;;75.30;;
57746;SDS011;43580;44.014;20.466;2022-12-07T04:40:19;144.80;;;83.30;;
57746;SDS011;43580;44.014;20.466;2022-12-07T04:42:45;142.75;;;85.15;;
57746;SDS011;43580;44.014;20.466;2022-12-07T04:45:11;175.05;;;96.18;;
57746;SDS011;43580;44.014;20.466;2022-12-07T04:47:38;162.75;;;94.65;;
57746;SDS011;43580;44.014;20.466;2022-12-07T04:50:06;154.27;;;91.43;;
57746;SDS011;43580;44.014;20.466;2022-12-07T04:52:32;275.05;;;128.77;;
57746;SDS011;43580;44.014;20.466;2022-12-07T04:54:58;173.02;;;105.63;;
57746;SDS011;43580;44.014;20.466;2022-12-07T04:57:24;194.07;;;108.93;;
57746;SDS011;43580;44.014;20.466;2022-12-07T04:59:50;159.38;;;91.28;;
57746;SDS011;43580;44.014;20.466;2022-12-07T05:02:16;152.32;;;89.35;;
57746;SDS011;43580;44.014;20.466;2022-12-07T05:04:43;154.75;;;88.15;;
57746;SDS011;43580;44.014;20.466;2022-12-07T05:07:11;157.18;;;87.05;;
57746;SDS011;43580;44.014;20.466;2022-12-07T05:09:37;152.20;;;89.15;;
57746;SDS011;43580;44.014;20.466;2022-12-07T05:12:03;204.13;;;115.07;;
57746;SDS011;43580;44.014;20.466;2022-12-07T05:14:29;153.00;;;88.03;;
57746;SDS011;43580;44.014;20.466;2022-12-07T05:16:55;178.57;;;99.43;;
57746;SDS011;43580;44.014;20.466;2022-12-07T05:19:21;185.65;;;99.70;;
57746;SDS011;43580;44.014;20.466;2022-12-07T05:21:47;184.57;;;103.68;;
57746;SDS011;43580;44.014;20.466;2022-12-07T05:24:14;171.05;;;90.38;;
57746;SDS011;43580;44.014;20.466;2022-12-07T05:26:41;304.83;;;162.40;;
57746;SDS011;43580;44.014;20.466;2022-12-07T05:29:07;169.73;;;98.25;;
57746;SDS011;43580;44.014;20.466;2022-12-07T05:31:36;225.15;;;120.07;;
57746;SDS011;43580;44.014;20.466;2022-12-07T05:34:02;167.93;;;95.30;;
57746;SDS011;43580;44.014;20.466;2022-12-07T05:36:28;165.65;;;94.53;;
57746;SDS011;43580;44.014;20.466;2022-12-07T05:38:56;166.15;;;94.90;;
57746;SDS011;43580;44.014;20.466;2022-12-07T05:41:23;172.70;;;95.75;;
57746;SDS011;43580;44.014;20.466;2022-12-07T05:44:21;182.55;;;93.28;;
57746;SDS011;43580;44.014;20.466;2022-12-07T05:46:47;178.43;;;94.65;;
57746;SDS011;43580;44.014;20.466;2022-12-07T05:49:13;138.02;;;78.50;;
57746;SDS011;43580;44.014;20.466;2022-12-07T05:51:40;140.20;;;82.38;;
57746;SDS011;43580;44.014;20.466;2022-12-07T05:54:06;144.30;;;82.53;;
57746;SDS011;43580;44.014;20.466;2022-12-07T05:56:35;147.45;;;78.90;;
57746;SDS011;43580;44.014;20.466;2022-12-07T05:59:03;144.63;;;80.45;;
57746;SDS011;43580;44.014;20.466;2022-12-07T06:01:51;143.98;;;73.72;;
57746;SDS011;43580;44.014;20.466;2022-12-07T06:04:17;166.02;;;88.65;;
57746;SDS011;43580;44.014;20.466;2022-12-07T06:06:44;149.82;;;73.53;;
57746;SDS011;43580;44.014;20.466;2022-12-07T06:09:10;195.57;;;75.90;;
57746;SDS011;43580;44.014;20.466;2022-12-07T06:11:39;267.88;;;126.78;;
57746;SDS011;43580;44.014;20.466;2022-12-07T06:14:23;340.83;;;147.40;;
57746;SDS011;43580;44.014;20.466;2022-12-07T06:16:49;292.00;;;129.55;;
57746;SDS011;43580;44.014;20.466;2022-12-07T06:19:15;252.85;;;118.57;;
57746;SDS011;43580;44.014;20.466;2022-12-07T06:21:42;241.73;;;123.50;;
57746;SDS011;43580;44.014;20.466;2022-12-07T06:24:13;220.27;;;114.85;;
57746;SDS011;43580;44.014;20.466;2022-12-07T06:26:40;173.35;;;91.95;;
57746;SDS011;43580;44.014;20.466;2022-12-07T06:29:06;175.10;;;93.97;;
57746;SDS011;43580;44.014;20.466;2022-12-07T06:31:32;290.80;;;159.88;;
57746;SDS011;43580;44.014;20.466;2022-12-07T06:34:02;267.42;;;139.57;;
57746;SDS011;43580;44.014;20.466;2022-12-07T06:36:31;269.60;;;142.35;;
57746;SDS011;43580;44.014;20.466;2022-12-07T06:38:58;424.13;;;270.75;;
57746;SDS011;43580;44.014;20.466;2022-12-07T06:41:24;239.98;;;137.25;;
57746;SDS011;43580;44.014;20.466;2022-12-07T06:43:50;180.68;;;103.65;;
57746;SDS011;43580;44.014;20.466;2022-12-07T06:46:16;170.65;;;97.75;;
57746;SDS011;43580;44.014;20.466;2022-12-07T06:48:42;243.85;;;134.68;;
57746;SDS011;43580;44.014;20.466;2022-12-07T06:51:08;300.42;;;158.40;;
57746;SDS011;43580;44.014;20.466;2022-12-07T06:53:35;302.70;;;154.27;;
57746;SDS011;43580;44.014;20.466;2022-12-07T06:56:04;273.42;;;144.55;;
57746;SDS011;43580;44.014;20.466;2022-12-07T06:58:30;232.60;;;127.97;;
57746;SDS011;43580;44.014;20.466;2022-12-07T07:00:56;197.07;;;103.45;;
57746;SDS011;43580;44.014;20.466;2022-12-07T07:03:22;199.10;;;103.03;;
57746;SDS011;43580;44.014;20.466;2022-12-07T07:05:48;197.93;;;103.25;;
57746;SDS011;43580;44.014;20.466;2022-12-07T07:08:17;209.27;;;108.05;;
57746;SDS011;43580;44.014;20.466;2022-12-07T07:10:43;257.50;;;121.88;;
57746;SDS011;43580;44.014;20.466;2022-12-07T07:13:09;331.63;;;144.27;;
57746;SDS011;43580;44.014;20.466;2022-12-07T07:15:36;378.23;;;143.32;;
57746;SDS011;43580;44.014;20.466;2022-12-07T07:18:03;304.33;;;123.88;;
57746;SDS011;43580;44.014;20.466;2022-12-07T07:20:29;329.90;;;123.72;;
57746;SDS011;43580;44.014;20.466;2022-12-07T07:22:55;246.45;;;94.75;;
57746;SDS011;43580;44.014;20.466;2022-12-07T07:25:22;268.10;;;94.40;;
57746;SDS011;43580;44.014;20.466;2022-12-07T07:27:48;262.98;;;93.95;;
57746;SDS011;43580;44.014;20.466;2022-12-07T07:30:14;229.27;;;88.63;;
57746;SDS011;43580;44.014;20.466;2022-12-07T07:32:40;210.32;;;80.35;;
57746;SDS011;43580;44.014;20.466;2022-12-07T07:35:06;239.35;;;81.75;;
57746;SDS011;43580;44.014;20.466;2022-12-07T07:37:32;187.88;;;72.35;;
57746;SDS011;43580;44.014;20.466;2022-12-07T07:40:01;219.68;;;81.20;;
57746;SDS011;43580;44.014;20.466;2022-12-07T07:42:27;242.02;;;80.13;;
57746;SDS011;43580;44.014;20.466;2022-12-07T07:44:53;379.40;;;102.93;;
57746;SDS011;43580;44.014;20.466;2022-12-07T07:47:19;462.85;;;105.20;;
57746;SDS011;43580;44.014;20.466;2022-12-07T07:49:45;334.33;;;99.68;;
57746;SDS011;43580;44.014;20.466;2022-12-07T07:52:11;326.45;;;108.90;;
57746;SDS011;43580;44.014;20.466;2022-12-07T07:54:38;287.98;;;98.03;;
57746;SDS011;43580;44.014;20.466;2022-12-07T07:57:04;205.20;;;83.82;;
57746;SDS011;43580;44.014;20.466;2022-12-07T07:59:30;171.77;;;70.97;;
57746;SDS011;43580;44.014;20.466;2022-12-07T08:02:03;213.73;;;85.40;;
57746;SDS011;43580;44.014;20.466;2022-12-07T08:04:29;150.35;;;62.10;;
57746;SDS011;43580;44.014;20.466;2022-12-07T08:06:56;169.82;;;70.10;;
57746;SDS011;43580;44.014;20.466;2022-12-07T08:09:22;177.55;;;73.72;;
57746;SDS011;43580;44.014;20.466;2022-12-07T08:11:48;164.10;;;66.38;;
57746;SDS011;43580;44.014;20.466;2022-12-07T08:14:14;165.23;;;61.53;;
57746;SDS011;43580;44.014;20.466;2022-12-07T08:16:40;154.73;;;64.18;;
57746;SDS011;43580;44.014;20.466;2022-12-07T08:19:06;158.77;;;70.38;;
57746;SDS011;43580;44.014;20.466;2022-12-07T08:21:33;176.85;;;73.57;;
57746;SDS011;43580;44.014;20.466;2022-12-07T08:23:59;251.18;;;104.80;;
57746;SDS011;43580;44.014;20.466;2022-12-07T08:26:25;208.90;;;92.93;;
57746;SDS011;43580;44.014;20.466;2022-12-07T08:28:52;169.30;;;74.13;;
57746;SDS011;43580;44.014;20.466;2022-12-07T08:31:18;163.95;;;75.40;;
57746;SDS011;43580;44.014;20.466;2022-12-07T08:33:45;165.05;;;77.13;;
57746;SDS011;43580;44.014;20.466;2022-12-07T08:36:14;143.20;;;65.97;;
57746;SDS011;43580;44.014;20.466;2022-12-07T08:38:41;146.10;;;74.90;;
57746;SDS011;43580;44.014;20.466;2022-12-07T08:41:07;104.68;;;46.97;;
57746;SDS011;43580;44.014;20.466;2022-12-07T08:43:36;112.85;;;52.75;;
57746;SDS011;43580;44.014;20.466;2022-12-07T08:46:13;94.68;;;47.22;;
57746;SDS011;43580;44.014;20.466;2022-12-07T08:48:46;94.88;;;45.92;;
57746;SDS011;43580;44.014;20.466;2022-12-07T08:51:13;95.47;;;50.13;;
57746;SDS011;43580;44.014;20.466;2022-12-07T08:53:39;87.03;;;43.13;;
57746;SDS011;43580;44.014;20.466;2022-12-07T08:56:05;100.18;;;51.15;;
57746;SDS011;43580;44.014;20.466;2022-12-07T08:58:33;90.20;;;46.70;;
57746;SDS011;43580;44.014;20.466;2022-12-07T09:00:59;80.65;;;42.38;;
57746;SDS011;43580;44.014;20.466;2022-12-07T09:03:28;67.32;;;39.22;;
57746;SDS011;43580;44.014;20.466;2022-12-07T09:05:54;88.57;;;50.45;;
57746;SDS011;43580;44.014;20.466;2022-12-07T09:08:21;73.45;;;44.33;;
57746;SDS011;43580;44.014;20.466;2022-12-07T09:10:47;78.32;;;48.42;;
57746;SDS011;43580;44.014;20.466;2022-12-07T09:13:13;63.70;;;38.92;;
57746;SDS011;43580;44.014;20.466;2022-12-07T09:15:39;54.33;;;32.30;;
57746;SDS011;43580;44.014;20.466;2022-12-07T09:18:05;68.20;;;41.85;;
57746;SDS011;43580;44.014;20.466;2022-12-07T09:20:31;50.22;;;28.77;;
57746;SDS011;43580;44.014;20.466;2022-12-07T09:22:58;45.33;;;24.80;;
57746;SDS011;43580;44.014;20.466;2022-12-07T09:25:24;66.50;;;45.05;;
57746;SDS011;43580;44.014;20.466;2022-12-07T09:27:56;53.72;;;31.65;;
57746;SDS011;43580;44.014;20.466;2022-12-07T09:30:23;47.58;;;28.25;;
57746;SDS011;43580;44.014;20.466;2022-12-07T09:32:49;47.28;;;27.88;;
57746;SDS011;43580;44.014;20.466;2022-12-07T09:35:17;59.67;;;33.38;;
57746;SDS011;43580;44.014;20.466;2022-12-07T09:37:43;59.58;;;31.95;;
57746;SDS011;43580;44.014;20.466;2022-12-07T09:40:12;68.25;;;37.10;;
57746;SDS011;43580;44.014;20.466;2022-12-07T09:42:39;73.75;;;43.42;;
57746;SDS011;43580;44.014;20.466;2022-12-07T09:45:19;69.88;;;36.50;;
57746;SDS011;43580;44.014;20.466;2022-12-07T09:47:46;81.35;;;39.22;;
57746;SDS011;43580;44.014;20.466;2022-12-07T09:50:14;97.05;;;46.17;;
57746;SDS011;43580;44.014;20.466;2022-12-07T09:52:41;105.45;;;49.17;;
57746;SDS011;43580;44.014;20.466;2022-12-07T09:55:27;89.82;;;44.50;;
57746;SDS011;43580;44.014;20.466;2022-12-07T09:57:54;87.43;;;39.03;;
57746;SDS011;43580;44.014;20.466;2022-12-07T10:00:23;92.72;;;42.33;;
57746;SDS011;43580;44.014;20.466;2022-12-07T10:02:53;101.47;;;46.60;;
57746;SDS011;43580;44.014;20.466;2022-12-07T10:05:22;115.10;;;48.15;;
57746;SDS011;43580;44.014;20.466;2022-12-07T10:07:49;109.72;;;50.40;;
57746;SDS011;43580;44.014;20.466;2022-12-07T10:10:20;105.55;;;45.28;;
57746;SDS011;43580;44.014;20.466;2022-12-07T10:12:59;113.15;;;51.50;;
57746;SDS011;43580;44.014;20.466;2022-12-07T10:18:16;125.93;;;50.67;;
57746;SDS011;43580;44.014;20.466;2022-12-07T10:20:43;111.47;;;45.95;;
57746;SDS011;43580;44.014;20.466;2022-12-07T10:23:14;102.10;;;44.70;;
57746;SDS011;43580;44.014;20.466;2022-12-07T10:25:40;104.75;;;46.28;;
57746;SDS011;43580;44.014;20.466;2022-12-07T10:30:46;89.63;;;42.72;;
57746;SDS011;43580;44.014;20.466;2022-12-07T10:35:58;88.45;;;42.20;;
57746;SDS011;43580;44.014;20.466;2022-12-07T10:38:26;87.28;;;47.10;;
57746;SDS011;43580;44.014;20.466;2022-12-07T10:41:07;66.63;;;36.58;;
57746;SDS011;43580;44.014;20.466;2022-12-07T10:43:34;80.00;;;40.70;;
57746;SDS011;43580;44.014;20.466;2022-12-07T10:51:16;75.97;;;38.40;;
57746;SDS011;43580;44.014;20.466;2022-12-07T11:06:39;69.97;;;38.13;;
57746;SDS011;43580;44.014;20.466;2022-12-07T11:12:17;76.00;;;38.70;;
57746;SDS011;43580;44.014;20.466;2022-12-07T11:15:04;91.45;;;55.72;;
57746;SDS011;43580;44.014;20.466;2022-12-07T11:22:49;72.03;;;41.85;;
57746;SDS011;43580;44.014;20.466;2022-12-07T11:25:20;129.45;;;70.78;;
57746;SDS011;43580;44.014;20.466;2022-12-07T11:30:19;110.57;;;66.57;;
57746;SDS011;43580;44.014;20.466;2022-12-07T11:32:51;112.72;;;65.50;;
57746;SDS011;43580;44.014;20.466;2022-12-07T11:35:24;80.90;;;45.97;;
57746;SDS011;43580;44.014;20.466;2022-12-07T11:38:00;73.25;;;42.70;;
57746;SDS011;43580;44.014;20.466;2022-12-07T11:40:31;68.15;;;40.60;;
57746;SDS011;43580;44.014;20.466;2022-12-07T11:43:21;62.72;;;34.20;;
57746;SDS011;43580;44.014;20.466;2022-12-07T11:45:52;58.00;;;33.75;;
57746;SDS011;43580;44.014;20.466;2022-12-07T11:48:22;72.13;;;42.28;;
57746;SDS011;43580;44.014;20.466;2022-12-07T11:50:51;60.53;;;34.88;;
57746;SDS011;43580;44.014;20.466;2022-12-07T12:03:28;61.10;;;37.28;;
57746;SDS011;43580;44.014;20.466;2022-12-07T12:05:56;70.85;;;44.83;;
57746;SDS011;43580;44.014;20.466;2022-12-07T12:09:25;63.72;;;39.15;;
57746;SDS011;43580;44.014;20.466;2022-12-07T12:21:29;72.95;;;38.63;;
57746;SDS011;43580;44.014;20.466;2022-12-07T12:23:58;61.13;;;34.50;;
57746;SDS011;43580;44.014;20.466;2022-12-07T12:26:30;78.22;;;45.92;;
57746;SDS011;43580;44.014;20.466;2022-12-07T12:28:58;64.78;;;39.35;;
57746;SDS011;43580;44.014;20.466;2022-12-07T12:33:54;82.95;;;42.03;;
57746;SDS011;43580;44.014;20.466;2022-12-07T12:36:23;74.20;;;42.53;;
57746;SDS011;43580;44.014;20.466;2022-12-07T12:46:55;83.05;;;49.30;;
57746;SDS011;43580;44.014;20.466;2022-12-07T12:56:42;74.00;;;36.47;;
57746;SDS011;43580;44.014;20.466;2022-12-07T13:01:44;63.60;;;30.77;;
57746;SDS011;43580;44.014;20.466;2022-12-07T13:04:21;59.78;;;32.00;;
57746;SDS011;43580;44.014;20.466;2022-12-07T13:06:51;59.47;;;32.50;;
57746;SDS011;43580;44.014;20.466;2022-12-07T13:09:25;58.42;;;30.30;;
57746;SDS011;43580;44.014;20.466;2022-12-07T13:12:34;56.90;;;29.80;;
57746;SDS011;43580;44.014;20.466;2022-12-07T13:14:58;61.83;;;35.63;;
57746;SDS011;43580;44.014;20.466;2022-12-07T13:19:56;80.00;;;46.00;;
57746;SDS011;43580;44.014;20.466;2022-12-07T13:24:56;57.60;;;33.00;;
57746;SDS011;43580;44.014;20.466;2022-12-07T13:27:22;57.13;;;26.98;;
57746;SDS011;43580;44.014;20.466;2022-12-07T13:29:50;85.18;;;50.97;;
57746;SDS011;43580;44.014;20.466;2022-12-07T13:32:26;60.25;;;31.52;;
57746;SDS011;43580;44.014;20.466;2022-12-07T13:34:52;72.15;;;38.08;;
57746;SDS011;43580;44.014;20.466;2022-12-07T13:37:28;61.42;;;32.15;;
57746;SDS011;43580;44.014;20.466;2022-12-07T13:39:59;66.72;;;33.10;;
57746;SDS011;43580;44.014;20.466;2022-12-07T13:42:29;74.78;;;36.38;;
57746;SDS011;43580;44.014;20.466;2022-12-07T13:44:56;60.15;;;32.15;;
57746;SDS011;43580;44.014;20.466;2022-12-07T13:49:50;55.63;;;29.75;;
57746;SDS011;43580;44.014;20.466;2022-12-07T13:52:17;56.35;;;29.98;;
57746;SDS011;43580;44.014;20.466;2022-12-07T13:55:29;62.92;;;40.88;;
57746;SDS011;43580;44.014;20.466;2022-12-07T13:57:30;46.65;;;27.80;;
57746;SDS011;43580;44.014;20.466;2022-12-07T13:59:58;52.97;;;31.13;;
57746;SDS011;43580;44.014;20.466;2022-12-07T14:02:28;62.72;;;36.47;;
57746;SDS011;43580;44.014;20.466;2022-12-07T14:07:44;56.45;;;32.00;;
57746;SDS011;43580;44.014;20.466;2022-12-07T14:12:49;53.70;;;33.33;;
57746;SDS011;43580;44.014;20.466;2022-12-07T14:15:19;52.13;;;30.05;;
57746;SDS011;43580;44.014;20.466;2022-12-07T14:17:52;55.83;;;37.88;;
57746;SDS011;43580;44.014;20.466;2022-12-07T14:23:26;96.28;;;61.50;;
57746;SDS011;43580;44.014;20.466;2022-12-07T14:25:53;112.10;;;77.05;;
57746;SDS011;43580;44.014;20.466;2022-12-07T14:30:53;55.00;;;33.70;;
57746;SDS011;43580;44.014;20.466;2022-12-07T14:33:22;62.00;;;37.83;;
57746;SDS011;43580;44.014;20.466;2022-12-07T14:35:48;56.65;;;35.28;;
57746;SDS011;43580;44.014;20.466;2022-12-07T14:38:14;69.80;;;42.65;;
57746;SDS011;43580;44.014;20.466;2022-12-07T14:40:43;92.72;;;59.25;;
57746;SDS011;43580;44.014;20.466;2022-12-07T14:43:10;66.22;;;40.40;;
57746;SDS011;43580;44.014;20.466;2022-12-07T14:45:37;56.35;;;36.65;;
57746;SDS011;43580;44.014;20.466;2022-12-07T14:48:04;51.05;;;35.03;;
57746;SDS011;43580;44.014;20.466;2022-12-07T14:50:31;61.58;;;37.50;;
57746;SDS011;43580;44.014;20.466;2022-12-07T14:53:00;57.83;;;34.20;;
57746;SDS011;43580;44.014;20.466;2022-12-07T14:55:28;40.22;;;24.85;;
57746;SDS011;43580;44.014;20.466;2022-12-07T14:57:55;38.25;;;26.73;;
57746;SDS011;43580;44.014;20.466;2022-12-07T15:00:22;36.35;;;22.25;;
57746;SDS011;43580;44.014;20.466;2022-12-07T15:02:51;32.45;;;19.45;;
57746;SDS011;43580;44.014;20.466;2022-12-07T15:05:17;34.90;;;20.17;;
57746;SDS011;43580;44.014;20.466;2022-12-07T15:07:44;36.75;;;21.90;;
57746;SDS011;43580;44.014;20.466;2022-12-07T15:10:14;43.75;;;31.05;;
57746;SDS011;43580;44.014;20.466;2022-12-07T15:12:43;40.05;;;23.88;;
57746;SDS011;43580;44.014;20.466;2022-12-07T15:15:09;43.10;;;26.95;;
57746;SDS011;43580;44.014;20.466;2022-12-07T15:17:36;36.97;;;21.65;;
57746;SDS011;43580;44.014;20.466;2022-12-07T15:20:02;37.42;;;21.80;;
57746;SDS011;43580;44.014;20.466;2022-12-07T15:22:28;39.85;;;25.02;;
57746;SDS011;43580;44.014;20.466;2022-12-07T15:24:56;43.42;;;26.00;;
57746;SDS011;43580;44.014;20.466;2022-12-07T15:27:22;25.05;;;16.40;;
57746;SDS011;43580;44.014;20.466;2022-12-07T15:29:48;35.40;;;24.63;;
57746;SDS011;43580;44.014;20.466;2022-12-07T15:32:14;51.95;;;30.85;;
57746;SDS011;43580;44.014;20.466;2022-12-07T15:34:40;34.45;;;21.30;;
57746;SDS011;43580;44.014;20.466;2022-12-07T15:37:06;34.33;;;21.95;;
57746;SDS011;43580;44.014;20.466;2022-12-07T15:39:33;70.95;;;42.10;;
57746;SDS011;43580;44.014;20.466;2022-12-07T15:41:59;66.13;;;44.13;;
57746;SDS011;43580;44.014;20.466;2022-12-07T15:44:25;42.80;;;27.90;;
57746;SDS011;43580;44.014;20.466;2022-12-07T15:47:09;34.88;;;23.45;;
57746;SDS011;43580;44.014;20.466;2022-12-07T15:49:36;39.58;;;27.52;;
57746;SDS011;43580;44.014;20.466;2022-12-07T15:52:02;37.65;;;22.95;;
57746;SDS011;43580;44.014;20.466;2022-12-07T15:54:28;76.97;;;63.95;;
57746;SDS011;43580;44.014;20.466;2022-12-07T15:56:54;45.50;;;34.38;;
57746;SDS011;43580;44.014;20.466;2022-12-07T15:59:23;56.28;;;41.13;;
57746;SDS011;43580;44.014;20.466;2022-12-07T16:01:51;44.97;;;31.75;;
57746;SDS011;43580;44.014;20.466;2022-12-07T16:04:17;29.70;;;22.00;;
57746;SDS011;43580;44.014;20.466;2022-12-07T16:06:43;70.53;;;46.65;;
57746;SDS011;43580;44.014;20.466;2022-12-07T16:09:09;52.13;;;34.92;;
57746;SDS011;43580;44.014;20.466;2022-12-07T16:11:35;36.38;;;22.77;;
57746;SDS011;43580;44.014;20.466;2022-12-07T16:14:04;33.38;;;23.02;;
57746;SDS011;43580;44.014;20.466;2022-12-07T16:16:30;40.95;;;27.25;;
57746;SDS011;43580;44.014;20.466;2022-12-07T16:18:57;31.33;;;21.08;;
57746;SDS011;43580;44.014;20.466;2022-12-07T16:21:23;30.27;;;17.77;;
57746;SDS011;43580;44.014;20.466;2022-12-07T16:23:49;33.38;;;21.27;;
57746;SDS011;43580;44.014;20.466;2022-12-07T16:26:19;42.70;;;31.15;;